Time,TemperatureF,DewpointF,PressureIn,WindDirection,WindDirectionDegrees,WindSpeedMPH,WindSpeedGustMPH,Humidity,HourlyPrecipIn,Conditions,Clouds,dailyrainin,SoftwareType,DateUTC
2013-04-26 00:00:00,54.3,28.6,28.91,SW,230,0.0,12.1,37,0.00,,SCT250,0.00,VWS V14.01,2013-04-26 05:00:00,
2013-04-26 00:15:00,53.8,28.8,28.91,SW,221,0.0,9.4,38,0.00,,BKN250,0.00,VWS V14.01,2013-04-26 05:15:00,
2013-04-26 00:30:00,53.4,29.1,28.91,SW,233,0.0,9.4,39,0.00,,BKN250,0.00,VWS V14.01,2013-04-26 05:30:00,
2013-04-26 00:45:00,53.1,28.8,28.91,SW,236,0.0,0.0,39,0.00,,BKN250,0.00,VWS V14.01,2013-04-26 05:45:00,
2013-04-26 01:00:00,53.1,28.8,28.91,WSW,237,0.0,0.0,39,0.00,,BKN250,0.00,VWS V14.01,2013-04-26 06:00:00,
2013-04-26 01:15:00,53.4,29.7,28.91,SW,229,0.0,9.4,40,0.00,,BKN250,0.00,VWS V14.01,2013-04-26 06:15:00,
2013-04-26 01:30:00,53.2,29.6,28.91,SW,223,0.0,20.8,40,0.00,,BKN250,0.00,VWS V14.01,2013-04-26 06:30:00,
2013-04-26 01:45:00,52.9,29.2,28.91,WSW,248,0.0,10.7,40,0.00,,BKN250,0.00,VWS V14.01,2013-04-26 06:45:00,
2013-04-26 02:00:00,52.2,29.2,28.91,WSW,256,0.0,10.7,41,0.00,,BKN250,0.00,VWS V14.01,2013-04-26 07:00:00,
2013-04-26 02:15:00,51.8,29.5,28.91,WSW,251,0.0,0.0,42,0.00,,SCT250,0.00,VWS V14.01,2013-04-26 07:15:00,
2013-04-26 02:30:00,51.4,30.3,28.91,SW,230,0.0,0.0,44,0.00,,SCT250,0.00,VWS V14.01,2013-04-26 07:30:00,
2013-04-26 02:45:00,51.1,30.5,28.88,SW,235,0.0,8.1,45,0.00,,SCT250,0.00,VWS V14.01,2013-04-26 07:45:00,
2013-04-26 03:00:00,51.1,31.0,28.88,WSW,244,0.0,8.1,46,0.00,,SCT250,0.00,VWS V14.01,2013-04-26 08:00:00,
2013-04-26 03:15:00,51.1,31.0,28.88,SW,232,0.0,0.0,46,0.00,,SCT250,0.00,VWS V14.01,2013-04-26 08:15:00,
2013-04-26 03:30:00,50.7,30.2,28.88,SW,235,0.0,0.0,45,0.00,,SCT250,0.00,VWS V14.01,2013-04-26 08:30:00,
2013-04-26 03:45:00,50.7,29.6,28.88,SW,233,0.0,0.0,44,0.00,,SCT250,0.00,VWS V14.01,2013-04-26 08:45:00,
2013-04-26 04:15:00,50.5,28.9,28.88,SW,229,0.0,0.0,43,0.00,,SCT250,0.00,VWS V14.01,2013-04-26 09:15:00,
2013-04-26 04:30:00,50.5,28.9,28.88,WSW,239,0.0,8.1,43,0.00,,SCT250,0.00,VWS V14.01,2013-04-26 09:30:00,
2013-04-26 04:45:00,50.7,28.5,28.85,WSW,239,0.0,8.1,42,0.00,,SCT250,0.00,VWS V14.01,2013-04-26 09:45:00,
2013-04-26 05:00:00,50.7,28.5,28.88,SW,230,0.0,8.1,42,0.00,,SCT250,0.00,VWS V14.01,2013-04-26 10:00:00,
2013-04-26 05:15:00,50.7,28.5,28.85,SW,225,0.0,13.4,42,0.00,,BKN250,0.00,VWS V14.01,2013-04-26 10:15:00,
2013-04-26 05:30:00,50.4,28.2,28.88,WSW,241,0.0,0.0,42,0.00,,BKN250,0.00,VWS V14.01,2013-04-26 10:30:00,
2013-04-26 05:45:00,50.2,28.6,28.85,SW,236,0.0,0.0,43,0.00,,BKN250,0.00,VWS V14.01,2013-04-26 10:45:00,
2013-04-26 06:00:00,50.2,28.6,28.85,SW,220,0.0,0.0,43,0.00,,BKN250,0.00,VWS V14.01,2013-04-26 11:00:00,
2013-04-26 06:15:00,50.0,29.0,28.85,SW,220,0.0,0.0,44,0.00,,BKN250,0.00,VWS V14.01,2013-04-26 11:15:00,
2013-04-26 06:30:00,49.8,28.8,28.88,WSW,237,0.0,0.0,44,0.00,,BKN250,0.00,VWS V14.01,2013-04-26 11:30:00,
2013-04-26 06:45:00,49.8,29.4,28.88,WSW,239,0.0,12.1,45,0.00,,BKN250,0.00,VWS V14.01,2013-04-26 11:45:00,
2013-04-26 07:00:00,50.0,29.5,28.88,WSW,238,0.0,0.0,45,0.00,,BKN250,0.00,VWS V14.01,2013-04-26 12:00:00,
2013-04-26 07:15:00,50.4,29.8,28.88,SW,232,0.0,12.1,45,0.00,,BKN250,0.00,VWS V14.01,2013-04-26 12:15:00,
2013-04-26 07:30:00,50.7,30.2,28.88,SW,235,0.0,8.1,45,0.00,,BKN250,0.00,VWS V14.01,2013-04-26 12:30:00,
2013-04-26 07:45:00,52.3,31.1,28.88,SW,229,0.0,8.1,44,0.00,,BKN250,0.00,VWS V14.01,2013-04-26 12:45:00,
2013-04-26 08:00:00,53.1,31.2,28.91,West,265,0.0,0.0,43,0.00,,BKN250,0.00,VWS V14.01,2013-04-26 13:00:00,
2013-04-26 08:15:00,54.5,32.5,28.91,SW,230,0.0,0.0,43,0.00,,BKN250,0.00,VWS V14.01,2013-04-26 13:15:00,
2013-04-26 08:30:00,55.9,32.6,28.91,WSW,243,0.0,0.0,41,0.00,,BKN250,0.00,VWS V14.01,2013-04-26 13:30:00,
2013-04-26 08:45:00,57.2,33.7,28.91,WSW,239,0.0,0.0,41,0.00,,BKN250,0.00,VWS V14.01,2013-04-26 13:45:00,
2013-04-26 09:00:00,59.9,34.9,28.91,SW,228,0.0,13.4,39,0.00,,BKN250,0.00,VWS V14.01,2013-04-26 14:00:00,
2013-04-26 09:15:00,61.5,35.0,28.91,SW,227,0.0,10.7,37,0.00,,BKN250,0.00,VWS V14.01,2013-04-26 14:15:00,
2013-04-26 09:30:00,63.7,36.2,28.94,SW,230,12.1,15.4,36,0.00,,BKN250,0.00,VWS V14.01,2013-04-26 14:30:00,
2013-04-26 09:45:00,63.0,35.6,28.91,WSW,257,0.0,13.4,36,0.00,,BKN250,0.00,VWS V14.01,2013-04-26 14:45:00,
2013-04-26 10:00:00,65.5,37.8,28.94,WSW,240,0.0,12.1,36,0.00,,BKN250,0.00,VWS V14.01,2013-04-26 15:00:00,
2013-04-26 10:15:00,65.8,37.5,28.94,SW,233,0.0,18.1,35,0.00,,BKN250,0.00,VWS V14.01,2013-04-26 15:15:00,
2013-04-26 10:30:00,65.1,36.8,28.94,SW,231,0.0,10.7,35,0.00,,BKN250,0.00,VWS V14.01,2013-04-26 15:30:00,
2013-04-26 10:45:00,64.2,37.4,28.94,WSW,254,0.0,14.1,37,0.00,,BKN250,0.00,VWS V14.01,2013-04-26 15:45:00,
2013-04-26 11:00:00,66.0,38.3,28.94,NW,326,12.1,13.4,36,0.00,,BKN250,0.00,VWS V14.01,2013-04-26 16:00:00,
2013-04-26 11:15:00,68.7,40.0,28.94,SW,235,0.0,14.1,35,0.00,,BKN250,0.00,VWS V14.01,2013-04-26 16:15:00,
2013-04-26 11:30:00,70.0,38.8,28.94,West,264,0.0,18.1,32,0.00,,BKN250,0.00,VWS V14.01,2013-04-26 16:30:00,
2013-04-26 11:45:00,70.2,39.0,28.94,SW,225,0.0,18.1,32,0.00,,BKN250,0.00,VWS V14.01,2013-04-26 16:45:00,
2013-04-26 12:00:00,69.6,39.3,28.94,SW,229,9.4,15.4,33,0.00,,BKN250,0.00,VWS V14.01,2013-04-26 17:00:00,
2013-04-26 12:15:00,70.9,39.6,28.94,SW,228,0.0,15.4,32,0.00,,BKN250,0.00,VWS V14.01,2013-04-26 17:15:00,
2013-04-26 12:30:00,70.9,39.6,28.94,WSW,244,0.0,13.4,32,0.00,,BKN250,0.00,VWS V14.01,2013-04-26 17:30:00,
2013-04-26 12:45:00,70.5,39.3,28.94,SW,234,0.0,15.4,32,0.00,,BKN250,0.00,VWS V14.01,2013-04-26 17:45:00,
2013-04-26 13:00:00,71.2,39.9,28.94,WSW,239,0.0,9.4,32,0.00,,BKN250,0.00,VWS V14.01,2013-04-26 18:00:00,
2013-04-26 13:15:00,71.1,39.7,28.91,WSW,237,0.0,12.1,32,0.00,,BKN250,0.00,VWS V14.01,2013-04-26 18:15:00,
2013-04-26 13:30:00,71.6,39.4,28.94,SW,225,0.0,13.4,31,0.00,,BKN250,0.00,VWS V14.01,2013-04-26 18:30:00,
2013-04-26 13:45:00,72.3,40.0,28.91,WSW,249,0.0,12.1,31,0.00,,BKN250,0.00,VWS V14.01,2013-04-26 18:45:00,
2013-04-26 14:00:00,72.7,40.3,28.94,SW,230,0.0,16.8,31,0.00,,BKN250,0.00,VWS V14.01,2013-04-26 19:00:00,
2013-04-26 14:15:00,72.3,39.2,28.91,SW,226,0.0,12.1,30,0.00,,BKN250,0.00,VWS V14.01,2013-04-26 19:15:00,
2013-04-26 14:30:00,72.1,38.2,28.91,WSW,248,0.0,12.1,29,0.00,,BKN250,0.00,VWS V14.01,2013-04-26 19:30:00,
2013-04-26 14:45:00,71.1,38.1,28.91,WSW,246,0.0,0.0,30,0.00,,BKN250,0.00,VWS V14.01,2013-04-26 19:45:00,
2013-04-26 15:00:00,70.9,38.8,28.91,SW,224,0.0,0.0,31,0.00,,BKN250,0.00,VWS V14.01,2013-04-26 20:00:00,
2013-04-26 15:15:00,72.9,40.5,28.91,SW,233,0.0,9.4,31,0.00,,BKN250,0.00,VWS V14.01,2013-04-26 20:15:00,
2013-04-26 15:30:00,73.8,40.4,28.91,WSW,240,0.0,8.1,30,0.00,,BKN250,0.00,VWS V14.01,2013-04-26 20:30:00,
2013-04-26 15:45:00,74.7,42.0,28.91,SW,236,10.7,10.7,31,0.00,,BKN250,0.00,VWS V14.01,2013-04-26 20:45:00,
2013-04-26 16:00:00,74.7,41.2,28.91,SW,228,0.0,10.7,30,0.00,,BKN250,0.00,VWS V14.01,2013-04-26 21:00:00,
2013-04-26 16:15:00,74.3,40.9,28.91,WSW,248,0.0,8.1,30,0.00,,BKN250,0.00,VWS V14.01,2013-04-26 21:15:00,
2013-04-26 16:30:00,74.1,41.6,28.91,SW,222,0.0,9.4,31,0.00,,BKN250,0.00,VWS V14.01,2013-04-26 21:30:00,
2013-04-26 16:45:00,73.8,41.3,28.91,SW,218,0.0,0.0,31,0.00,,BKN250,0.00,VWS V14.01,2013-04-26 21:45:00,
2013-04-26 17:00:00,73.6,41.1,28.91,WSW,240,0.0,0.0,31,0.00,,BKN250,0.00,VWS V14.01,2013-04-26 22:00:00,
2013-04-26 17:15:00,72.7,41.2,28.94,SW,228,0.0,9.4,32,0.00,,BKN250,0.00,VWS V14.01,2013-04-26 22:15:00,
2013-04-26 17:30:00,71.4,40.0,28.94,SW,233,0.0,12.1,32,0.00,,BKN250,0.00,VWS V14.01,2013-04-26 22:30:00,
2013-04-26 17:45:00,72.0,40.5,28.94,SW,229,0.0,10.7,32,0.00,,BKN250,0.00,VWS V14.01,2013-04-26 22:45:00,
2013-04-26 18:00:00,71.2,40.7,28.94,WSW,241,9.4,13.4,33,0.00,,BKN250,0.00,VWS V14.01,2013-04-26 23:00:00,
2013-04-26 18:15:00,68.5,40.5,28.94,WSW,237,0.0,13.4,36,0.00,,BKN250,0.00,VWS V14.01,2013-04-26 23:15:00,
2013-04-26 18:30:00,67.1,42.0,28.94,South,172,0.0,9.4,40,0.00,,BKN250,0.00,VWS V14.01,2013-04-26 23:30:00,
2013-04-26 18:45:00,66.0,41.7,28.94,West,259,0.0,8.1,41,0.00,,BKN250,0.00,VWS V14.01,2013-04-26 23:45:00,
2013-04-26 19:15:00,64.9,41.9,28.94,SW,235,0.0,10.7,43,0.00,,BKN250,0.00,VWS V14.01,2013-04-27 00:15:00,
2013-04-26 19:30:00,64.0,41.7,28.94,SSW,212,0.0,15.4,44,0.00,,BKN250,0.00,VWS V14.01,2013-04-27 00:30:00,
2013-04-26 19:45:00,63.1,41.5,28.94,SW,236,0.0,0.0,45,0.00,,BKN250,0.00,VWS V14.01,2013-04-27 00:45:00,
2013-04-26 20:00:00,62.1,41.6,28.97,SW,214,0.0,0.0,47,0.00,,BKN250,0.00,VWS V14.01,2013-04-27 01:00:00,
2013-04-26 20:15:00,61.2,41.3,28.97,SW,221,0.0,0.0,48,0.00,,SCT250,0.00,VWS V14.01,2013-04-27 01:15:00,
2013-04-26 20:30:00,60.3,41.6,28.97,WSW,254,0.0,12.1,50,0.00,,SCT250,0.00,VWS V14.01,2013-04-27 01:30:00,
2013-04-26 20:45:00,59.2,41.1,28.97,South,177,0.0,8.1,51,0.00,,SCT250,0.00,VWS V14.01,2013-04-27 01:45:00,
2013-04-26 21:00:00,58.1,40.6,28.97,SW,233,0.0,8.1,52,0.00,,SCT250,0.00,VWS V14.01,2013-04-27 02:00:00,
2013-04-26 21:15:00,57.2,40.7,28.97,SW,235,0.0,0.0,54,0.00,,SCT250,0.00,VWS V14.01,2013-04-27 02:15:00,
2013-04-26 21:30:00,56.3,40.8,29.00,SW,235,0.0,0.0,56,0.00,,SCT250,0.00,VWS V14.01,2013-04-27 02:30:00,
2013-04-26 21:45:00,55.6,41.0,29.00,WSW,242,0.0,12.1,58,0.00,,SCT250,0.00,VWS V14.01,2013-04-27 02:45:00,
2013-04-26 22:00:00,54.7,41.5,29.00,WSW,240,0.0,8.1,61,0.00,,SCT250,0.00,VWS V14.01,2013-04-27 03:00:00,
2013-04-26 22:15:00,54.0,42.1,29.00,WSW,237,0.0,0.0,64,0.00,,FEW250,0.00,VWS V14.01,2013-04-27 03:15:00,
2013-04-26 22:30:00,53.1,42.4,29.03,WSW,248,0.0,13.4,67,0.00,,FEW250,0.00,VWS V14.01,2013-04-27 03:30:00,
2013-04-26 22:45:00,52.5,42.7,29.03,WSW,253,0.0,9.4,69,0.00,,FEW250,0.00,VWS V14.01,2013-04-27 03:45:00,
2013-04-26 23:00:00,51.6,42.5,29.03,SW,232,0.0,13.4,71,0.00,,FEW250,0.00,VWS V14.01,2013-04-27 04:00:00,
2013-04-26 23:15:00,51.1,42.4,29.03,WSW,244,0.0,8.1,72,0.00,,FEW250,0.00,VWS V14.01,2013-04-27 04:15:00,
2013-04-26 23:30:00,50.5,42.2,29.03,SW,231,0.0,0.0,73,0.00,,FEW250,0.00,VWS V14.01,2013-04-27 04:30:00,
2013-04-26 23:45:00,50.0,42.0,29.03,WSW,256,0.0,0.0,74,0.00,,FEW250,0.00,VWS V14.01,2013-04-27 04:45:00,